createdAt,value
2023-03-04T00:01:46.165Z,-0.25
2023-03-04T00:03:19.851Z,-0.27
2023-03-04T00:05:05.038Z,-0.32
2023-03-04T00:06:59.477Z,-0.42
2023-03-04T00:08:53.492Z,-0.26
2023-03-04T00:10:38.526Z,-0.26
2023-03-04T00:12:00.207Z,-0.18
2023-03-04T00:13:26.624Z,-0.22
2023-03-04T00:15:00.257Z,-0.27
2023-03-04T00:16:21.979Z,-0.29
2023-03-04T00:17:51.270Z,-0.26
2023-03-04T00:19:15.914Z,-0.23
2023-03-04T00:20:59.720Z,-0.24
2023-03-04T00:22:40.318Z,-0.24
2023-03-04T00:24:33.230Z,-0.22
2023-03-04T00:26:17.867Z,-0.27
2023-03-04T00:28:04.422Z,-0.26
2023-03-04T00:29:52.098Z,-0.30
2023-03-04T00:31:27.427Z,-0.28
2023-03-04T00:33:03.674Z,-0.30
2023-03-04T00:34:48.665Z,-0.29
2023-03-04T00:36:42.562Z,-0.29
2023-03-04T00:38:15.747Z,-0.26
2023-03-04T00:40:01.564Z,-0.24
2023-03-04T00:41:35.450Z,-0.22
2023-03-04T00:43:04.367Z,-0.25
2023-03-04T00:44:53.613Z,-0.22
2023-03-04T00:46:23.131Z,-0.16
2023-03-04T00:47:56.255Z,-0.15
2023-03-04T00:49:40.850Z,-0.19
2023-03-04T00:51:06.875Z,-0.15
2023-03-04T00:52:43.050Z,-0.25
2023-03-04T00:54:30.814Z,-0.27
2023-03-04T00:56:11.377Z,-0.28
2023-03-04T00:57:58.800Z,-0.32
2023-03-04T00:59:43.942Z,-0.28
2023-03-04T01:01:17.032Z,-0.30
2023-03-04T01:03:02.660Z,-0.21
2023-03-04T01:04:47.774Z,-0.24
2023-03-04T01:06:40.638Z,-0.27
2023-03-04T01:08:16.011Z,-0.26
2023-03-04T01:10:10.535Z,-0.36
2023-03-04T01:11:58.427Z,-0.23
2023-03-04T01:13:53.564Z,-0.23
2023-03-04T01:15:27.372Z,-0.15
2023-03-04T01:17:12.103Z,-0.17
2023-03-04T01:19:06.489Z,-0.18
2023-03-04T01:20:47.357Z,-0.15
2023-03-04T01:22:20.692Z,-0.14
2023-03-04T01:23:54.682Z,-0.12
2023-03-04T01:25:39.489Z,-0.09
2023-03-04T01:27:34.524Z,-0.12
2023-03-04T01:29:19.206Z,-0.02
2023-03-04T01:31:00.147Z,0.07
2023-03-04T01:32:34.129Z,0.05
2023-03-04T01:34:20.499Z,0.07
2023-03-04T01:36:01.955Z,0.07
2023-03-04T01:37:47.462Z,0.09
2023-03-04T01:39:32.685Z,0.08
2023-03-04T01:41:17.649Z,0.13
2023-03-04T01:43:00.577Z,0.12
2023-03-04T01:44:33.792Z,0.15
2023-03-04T01:45:58.126Z,0.02
2023-03-04T01:47:34.660Z,0.12
2023-03-04T01:49:19.486Z,0.21
2023-03-04T01:50:43.718Z,0.18
2023-03-04T01:52:16.796Z,0.18
2023-03-04T01:54:03.146Z,0.26
2023-03-04T01:55:36.458Z,0.26
2023-03-04T01:57:21.566Z,0.21
2023-03-04T01:58:57.250Z,0.32
2023-03-04T02:00:42.878Z,0.37
2023-03-04T02:02:33.714Z,0.37
2023-03-04T02:04:09.343Z,0.40
2023-03-04T02:05:36.076Z,0.39
2023-03-04T02:07:20.923Z,0.46
2023-03-04T02:08:45.225Z,0.49
2023-03-04T02:10:25.897Z,0.47
2023-03-04T02:12:02.222Z,0.48
2023-03-04T02:13:36.959Z,0.48
2023-03-04T02:15:08.461Z,0.51
2023-03-04T02:16:32.919Z,0.53
2023-03-04T02:18:17.815Z,0.41
2023-03-04T02:19:44.383Z,0.47
2023-03-04T02:21:29.288Z,0.54
2023-03-04T02:23:10.734Z,0.57
2023-03-04T02:24:46.467Z,0.57
2023-03-04T02:26:22.168Z,0.62
2023-03-04T02:28:09.840Z,0.62
2023-03-04T02:30:04.468Z,0.62
2023-03-04T02:31:40.733Z,0.54
2023-03-04T02:33:05.034Z,0.58
2023-03-04T02:34:41.558Z,0.55
2023-03-04T02:36:07.307Z,0.58
2023-03-04T02:37:41.416Z,0.61
2023-03-04T02:39:14.540Z,0.64
2023-03-04T02:40:40.622Z,0.64
2023-03-04T02:42:13.781Z,0.63
2023-03-04T02:43:59.003Z,0.73
2023-03-04T02:45:44.392Z,0.79
2023-03-04T02:47:20.666Z,0.76
2023-03-04T02:49:06.407Z,0.74
2023-03-04T02:50:42.334Z,0.73
2023-03-04T02:52:15.594Z,0.77
2023-03-04T02:53:47.502Z,0.75
2023-03-04T02:55:40.705Z,0.76
2023-03-04T02:57:16.493Z,0.77
2023-03-04T02:58:53.776Z,0.77
2023-03-04T03:00:46.796Z,0.78
2023-03-04T03:02:10.509Z,0.75
2023-03-04T03:04:03.652Z,0.74
2023-03-04T03:05:46.265Z,0.75
2023-03-04T03:07:20.274Z,0.75
2023-03-04T03:08:43.201Z,0.74
2023-03-04T03:10:23.759Z,0.74
2023-03-04T03:11:59.535Z,0.72
2023-03-04T03:13:29.132Z,0.72
2023-03-04T03:15:13.979Z,0.75
2023-03-04T03:16:59.021Z,0.68
2023-03-04T03:18:48.211Z,0.79
2023-03-04T03:20:14.496Z,0.70
2023-03-04T03:21:47.749Z,0.82
2023-03-04T03:23:21.200Z,0.80
2023-03-04T03:24:55.062Z,0.81
2023-03-04T03:26:40.058Z,0.78
2023-03-04T03:28:14.309Z,0.75
2023-03-04T03:29:47.780Z,0.77
2023-03-04T03:31:28.291Z,0.78
2023-03-04T03:33:07.227Z,0.82
2023-03-04T03:34:31.966Z,0.79
2023-03-04T03:36:08.323Z,0.74
2023-03-04T03:38:01.097Z,0.78
2023-03-04T03:39:36.213Z,0.74
2023-03-04T03:41:09.592Z,0.75
2023-03-04T03:43:02.747Z,0.73
2023-03-04T03:44:48.279Z,0.76
2023-03-04T03:46:33.323Z,0.78
2023-03-04T03:48:18.623Z,0.80
2023-03-04T03:50:03.734Z,0.82
2023-03-04T03:51:39.468Z,0.80
2023-03-04T03:53:24.438Z,0.78
2023-03-04T03:55:09.659Z,0.81
2023-03-04T03:56:55.890Z,0.79
2023-03-04T03:58:41.053Z,0.78
2023-03-04T04:00:25.751Z,0.74
2023-03-04T04:02:02.600Z,0.73
2023-03-04T04:03:32.165Z,0.78
2023-03-04T04:05:16.994Z,0.76
2023-03-04T04:06:51.779Z,0.77
2023-03-04T04:08:17.555Z,0.88
2023-03-04T04:09:57.489Z,0.79
2023-03-04T04:11:38.694Z,0.86
2023-03-04T04:13:33.455Z,0.82
2023-03-04T04:15:09.480Z,0.80
2023-03-04T04:16:54.781Z,0.79
2023-03-04T04:18:28.975Z,0.77
2023-03-04T04:20:00.722Z,0.83
2023-03-04T04:21:33.887Z,0.86
2023-03-04T04:23:07.497Z,0.93
2023-03-04T04:24:52.403Z,0.87
2023-03-04T04:26:25.845Z,0.75
2023-03-04T04:28:11.304Z,0.85
2023-03-04T04:30:02.787Z,0.89
2023-03-04T04:31:37.017Z,0.83
2023-03-04T04:33:10.737Z,0.86
2023-03-04T04:34:44.262Z,0.90
2023-03-04T04:36:30.842Z,0.91
2023-03-04T04:38:16.014Z,0.88
2023-03-04T04:39:51.696Z,0.90
2023-03-04T04:41:31.945Z,0.96
2023-03-04T04:43:12.781Z,0.92
2023-03-04T04:45:00.377Z,0.86
2023-03-04T04:46:48.163Z,0.79
2023-03-04T04:48:21.489Z,0.81
2023-03-04T04:50:06.558Z,0.84
2023-03-04T04:51:39.788Z,0.85
2023-03-04T04:53:24.836Z,0.91
2023-03-04T04:55:09.833Z,0.93
2023-03-04T04:56:43.560Z,0.90
2023-03-04T04:58:16.748Z,0.92
2023-03-04T04:59:41.085Z,0.91
2023-03-04T05:01:34.622Z,0.88
2023-03-04T05:03:23.176Z,0.88
2023-03-04T05:05:05.173Z,0.91
2023-03-04T05:06:46.240Z,0.94
2023-03-04T05:08:10.399Z,0.91
2023-03-04T05:10:00.421Z,0.85
2023-03-04T05:11:29.376Z,0.92
2023-03-04T05:13:01.536Z,0.92
2023-03-04T05:14:35.360Z,0.91
2023-03-04T05:16:28.352Z,0.92
2023-03-04T05:18:01.995Z,0.96
2023-03-04T05:19:42.744Z,0.88
2023-03-04T05:21:06.608Z,0.96
2023-03-04T05:22:58.215Z,0.89
2023-03-04T05:24:32.774Z,0.94
2023-03-04T05:26:06.143Z,0.90
2023-03-04T05:27:59.811Z,0.92
2023-03-04T05:29:47.746Z,0.91
2023-03-04T05:31:32.121Z,0.94
2023-03-04T05:33:16.704Z,0.98
2023-03-04T05:34:43.475Z,0.92
2023-03-04T05:36:28.323Z,0.93
2023-03-04T05:38:01.881Z,0.91
2023-03-04T05:39:56.494Z,0.95
2023-03-04T05:41:30.916Z,0.96
2023-03-04T05:43:03.854Z,0.91
2023-03-04T05:44:37.195Z,0.92
2023-03-04T05:46:14.021Z,0.96
2023-03-04T05:47:51.928Z,0.93
2023-03-04T05:49:25.314Z,0.93
2023-03-04T05:51:03.450Z,0.97
2023-03-04T05:52:32.558Z,1.03
2023-03-04T05:54:13.529Z,1.02
2023-03-04T05:55:38.285Z,0.96
2023-03-04T05:57:11.531Z,0.99
2023-03-04T05:58:47.453Z,0.96
2023-03-04T06:00:20.634Z,0.95
2023-03-04T06:01:58.458Z,0.95
2023-03-04T06:03:53.551Z,0.98
2023-03-04T06:05:47.217Z,0.98
2023-03-04T06:07:31.786Z,1.02
2023-03-04T06:09:05.282Z,0.99
2023-03-04T06:10:53.775Z,0.97
2023-03-04T06:12:28.798Z,1.00
2023-03-04T06:13:58.073Z,1.03
2023-03-04T06:15:51.636Z,1.04
2023-03-04T06:17:15.455Z,1.03
2023-03-04T06:19:01.262Z,1.02
2023-03-04T06:20:55.507Z,1.10
2023-03-04T06:22:50.496Z,1.11
2023-03-04T06:24:40.379Z,1.10
2023-03-04T06:26:16.415Z,1.09
2023-03-04T06:27:41.187Z,1.04
2023-03-04T06:29:14.688Z,1.14
2023-03-04T06:31:00.185Z,1.06
2023-03-04T06:32:53.582Z,1.06
2023-03-04T06:34:45.346Z,1.10
2023-03-04T06:36:31.868Z,1.11
2023-03-04T06:38:05.682Z,1.11
2023-03-04T06:39:38.878Z,1.15
2023-03-04T06:41:12.348Z,1.12
2023-03-04T06:42:46.122Z,1.09
2023-03-04T06:44:19.283Z,1.06
2023-03-04T06:46:04.722Z,1.02
2023-03-04T06:47:50.149Z,1.04
2023-03-04T06:49:30.756Z,1.05
2023-03-04T06:50:52.506Z,1.09
2023-03-04T06:52:38.208Z,1.11
2023-03-04T06:54:14.035Z,1.17
2023-03-04T06:55:59.592Z,1.19
2023-03-04T06:57:48.651Z,1.15
2023-03-04T06:59:33.294Z,1.16
2023-03-04T07:01:18.152Z,1.21
2023-03-04T07:02:55.309Z,1.24
2023-03-04T07:04:30.684Z,1.21
2023-03-04T07:05:55.428Z,1.23
2023-03-04T07:07:28.839Z,1.20
2023-03-04T07:09:04.491Z,1.21
2023-03-04T07:10:37.999Z,1.23
2023-03-04T07:12:11.381Z,1.23
2023-03-04T07:13:59.278Z,1.25
2023-03-04T07:15:33.034Z,1.28
2023-03-04T07:16:56.993Z,1.23
2023-03-04T07:18:44.476Z,1.21
2023-03-04T07:20:19.978Z,1.28
2023-03-04T07:21:53.905Z,1.31
2023-03-04T07:23:38.928Z,1.31
2023-03-04T07:25:23.765Z,1.28
2023-03-04T07:27:08.973Z,1.31
2023-03-04T07:28:52.407Z,1.29
2023-03-04T07:30:25.934Z,1.28
2023-03-04T07:31:59.609Z,1.27
2023-03-04T07:33:45.000Z,1.28
2023-03-04T07:35:29.979Z,1.32
2023-03-04T07:37:14.802Z,1.41
2023-03-04T07:39:00.139Z,1.43
2023-03-04T07:40:35.751Z,1.41
2023-03-04T07:42:09.256Z,1.37
2023-03-04T07:43:35.450Z,1.34
2023-03-04T07:45:08.829Z,1.38
2023-03-04T07:46:44.739Z,1.35
2023-03-04T07:48:18.003Z,1.39
2023-03-04T07:49:57.602Z,1.44
2023-03-04T07:51:42.575Z,1.45
2023-03-04T07:53:08.484Z,1.49
2023-03-04T07:54:42.321Z,1.48
2023-03-04T07:56:22.849Z,1.50
2023-03-04T07:58:07.502Z,1.48
2023-03-04T07:59:41.196Z,1.48
2023-03-04T08:01:14.102Z,1.49
2023-03-04T08:02:56.983Z,1.47
2023-03-04T08:04:23.241Z,1.52
2023-03-04T08:05:47.798Z,1.49
2023-03-04T08:07:23.089Z,1.49
2023-03-04T08:09:07.867Z,1.51
2023-03-04T08:10:34.379Z,1.47
2023-03-04T08:12:14.587Z,1.54
2023-03-04T08:14:03.149Z,1.55
2023-03-04T08:15:53.513Z,1.56
2023-03-04T08:17:34.435Z,1.62
2023-03-04T08:19:08.018Z,1.65
2023-03-04T08:20:53.416Z,1.61
2023-03-04T08:22:24.631Z,1.63
2023-03-04T08:24:10.173Z,1.63
2023-03-04T08:26:03.946Z,1.45
2023-03-04T08:27:25.618Z,1.73
2023-03-04T08:29:01.413Z,1.68
2023-03-04T08:30:52.777Z,1.68
2023-03-04T08:32:38.717Z,1.68
2023-03-04T08:34:10.596Z,1.68
2023-03-04T08:35:48.182Z,1.76
2023-03-04T08:37:33.448Z,1.77
2023-03-04T08:39:07.141Z,1.80
2023-03-04T08:40:52.868Z,1.81
2023-03-04T08:42:37.884Z,1.81
2023-03-04T08:44:19.172Z,1.79
2023-03-04T08:46:04.635Z,1.85
2023-03-04T08:47:40.868Z,1.86
2023-03-04T08:49:05.292Z,1.81
2023-03-04T08:50:58.754Z,1.80
2023-03-04T08:52:34.009Z,1.81
2023-03-04T08:54:05.670Z,1.89
2023-03-04T08:55:41.449Z,1.87
2023-03-04T08:57:15.060Z,1.84
2023-03-04T08:59:02.754Z,1.82
2023-03-04T09:00:43.812Z,1.84
2023-03-04T09:02:08.027Z,1.87
2023-03-04T09:03:39.402Z,1.85
2023-03-04T09:05:14.593Z,1.84
2023-03-04T09:06:48.225Z,1.84
2023-03-04T09:08:40.159Z,1.88
2023-03-04T09:10:33.809Z,1.91
2023-03-04T09:12:07.755Z,1.87
2023-03-04T09:13:37.332Z,1.87
2023-03-04T09:15:13.104Z,1.85
2023-03-04T09:16:48.989Z,1.87
2023-03-04T09:18:38.155Z,1.91
2023-03-04T09:20:23.460Z,1.84
2023-03-04T09:22:08.687Z,1.86
2023-03-04T09:23:53.887Z,1.83
2023-03-04T09:25:48.493Z,1.89
2023-03-04T09:27:33.671Z,1.99
2023-03-04T09:29:18.808Z,1.94
2023-03-04T09:31:03.936Z,1.92
2023-03-04T09:32:39.953Z,1.95
2023-03-04T09:34:20.425Z,1.97
2023-03-04T09:36:01.418Z,1.93
2023-03-04T09:37:48.821Z,2.02
2023-03-04T09:39:24.056Z,2.06
2023-03-04T09:41:05.427Z,2.02
2023-03-04T09:42:52.281Z,1.98
2023-03-04T09:44:37.536Z,2.04
2023-03-04T09:46:07.012Z,2.09
2023-03-04T09:47:52.336Z,2.09
2023-03-04T09:49:13.752Z,2.10
2023-03-04T09:51:00.513Z,2.14
2023-03-04T09:52:46.083Z,2.10
2023-03-04T09:54:26.420Z,2.18
2023-03-04T09:56:11.460Z,2.27
2023-03-04T09:58:05.136Z,2.27
2023-03-04T09:59:58.768Z,2.22
2023-03-04T10:01:44.324Z,2.33
2023-03-04T10:03:17.446Z,2.28
2023-03-04T10:05:08.761Z,2.24
2023-03-04T10:06:54.503Z,2.23
2023-03-04T10:08:41.150Z,2.29
2023-03-04T10:10:21.718Z,2.30
2023-03-04T10:12:06.578Z,2.30
2023-03-04T10:16:01.479Z,2.36
2023-03-04T10:17:43.096Z,2.37
2023-03-04T10:19:18.382Z,2.41
2023-03-04T10:21:01.501Z,2.36
2023-03-04T10:22:48.808Z,2.42
2023-03-04T10:24:29.318Z,2.44
2023-03-04T10:26:03.000Z,2.50
2023-03-04T10:27:36.523Z,2.54
2023-03-04T10:29:09.622Z,2.56
2023-03-04T10:30:55.129Z,2.48
2023-03-04T10:32:40.121Z,2.47
2023-03-04T10:34:20.466Z,2.61
2023-03-04T10:36:05.794Z,2.65
2023-03-04T10:38:00.441Z,2.70
2023-03-04T10:39:34.055Z,2.66
2023-03-04T10:41:06.940Z,2.74
2023-03-04T10:42:40.837Z,2.72
2023-03-04T10:44:16.364Z,2.67
2023-03-04T10:45:52.054Z,2.73
2023-03-04T10:47:25.459Z,2.67
2023-03-04T10:48:50.810Z,2.67
2023-03-04T10:50:35.729Z,2.72
2023-03-04T10:52:08.655Z,2.77
2023-03-04T10:53:30.039Z,2.82
2023-03-04T10:55:03.692Z,2.79
2023-03-04T10:56:39.215Z,2.79
2023-03-04T10:58:12.702Z,2.83
2023-03-04T10:59:53.719Z,2.88
2023-03-04T11:01:25.103Z,2.90
2023-03-04T11:03:10.343Z,2.87
2023-03-04T11:04:55.592Z,2.81
2023-03-04T11:06:40.511Z,2.91
2023-03-04T11:08:19.053Z,2.89
2023-03-04T11:10:04.279Z,2.89
2023-03-04T11:11:38.433Z,2.98
2023-03-04T11:13:23.418Z,2.98
2023-03-04T11:14:59.168Z,2.96
2023-03-04T11:16:44.338Z,2.96
2023-03-04T11:18:29.181Z,2.99
2023-03-04T11:20:03.450Z,2.96
2023-03-04T11:21:48.459Z,2.91
2023-03-04T11:23:33.446Z,2.96
2023-03-04T11:25:18.522Z,3.01
2023-03-04T11:26:52.173Z,3.00
2023-03-04T11:28:25.084Z,3.01
2023-03-04T11:30:10.275Z,3.01
2023-03-04T11:31:55.847Z,2.96
2023-03-04T11:33:38.415Z,2.95
2023-03-04T11:35:23.619Z,3.01
2023-03-04T11:36:57.272Z,2.98
2023-03-04T11:38:26.166Z,3.00
2023-03-04T11:39:59.518Z,3.00
2023-03-04T11:41:32.731Z,3.13
2023-03-04T11:43:13.584Z,3.14
2023-03-04T11:44:51.240Z,3.19
2023-03-04T11:46:45.436Z,3.19
2023-03-04T11:48:29.906Z,3.19
2023-03-04T11:50:14.931Z,3.24
2023-03-04T11:51:59.983Z,3.27
2023-03-04T11:53:45.277Z,3.27
2023-03-04T11:55:34.143Z,3.43
2023-03-04T11:57:07.688Z,3.44
2023-03-04T11:59:02.450Z,3.50
2023-03-04T12:00:35.740Z,3.48
2023-03-04T12:02:08.949Z,3.41
2023-03-04T12:03:54.472Z,3.42
2023-03-04T12:05:39.285Z,3.48
2023-03-04T12:07:24.650Z,3.53
2023-03-04T12:08:46.853Z,3.45
2023-03-04T12:10:31.359Z,3.53
2023-03-04T12:12:16.270Z,3.59
2023-03-04T12:14:04.130Z,3.58
2023-03-04T12:15:37.512Z,3.59
2023-03-04T12:17:18.380Z,3.65
2023-03-04T12:18:52.177Z,3.64
2023-03-04T12:20:25.565Z,3.64
2023-03-04T12:21:59.078Z,3.63
2023-03-04T12:23:40.132Z,3.69
2023-03-04T12:25:15.669Z,3.64
2023-03-04T12:27:11.484Z,3.60
2023-03-04T12:29:03.946Z,3.64
2023-03-04T12:30:37.510Z,3.65
2023-03-04T12:32:11.061Z,3.65
2023-03-04T12:33:44.764Z,3.62
2023-03-04T12:35:25.308Z,3.67
2023-03-04T12:37:10.314Z,3.70
2023-03-04T12:38:51.116Z,3.70
2023-03-04T12:40:27.052Z,3.77
2023-03-04T12:42:12.329Z,3.82
2023-03-04T12:43:45.854Z,3.81
2023-03-04T12:45:27.252Z,3.86
2023-03-04T12:47:11.894Z,3.86
2023-03-04T12:49:06.469Z,3.86
2023-03-04T12:50:40.201Z,3.91
2023-03-04T12:52:15.617Z,3.94
2023-03-04T12:54:01.072Z,3.98
2023-03-04T12:55:42.804Z,3.99
2023-03-04T12:57:16.410Z,4.00
2023-03-04T12:59:01.787Z,4.00
2023-03-04T13:00:37.140Z,4.01
2023-03-04T13:02:12.531Z,4.03
2023-03-04T13:03:52.009Z,4.05
2023-03-04T13:05:27.193Z,4.17
2023-03-04T13:07:13.136Z,4.25
2023-03-04T13:08:56.121Z,4.30
2023-03-04T13:10:50.416Z,4.41
2023-03-04T13:12:16.395Z,4.45
2023-03-04T13:14:02.230Z,4.46
2023-03-04T13:15:38.048Z,4.53
2023-03-04T13:17:13.248Z,4.57
2023-03-04T13:18:58.570Z,4.58
2023-03-04T13:20:43.387Z,4.57
2023-03-04T13:22:28.127Z,4.62
2023-03-04T13:24:02.177Z,4.61
2023-03-04T13:25:35.785Z,4.57
2023-03-04T13:27:09.244Z,4.52
2023-03-04T13:28:42.735Z,4.48
2023-03-04T13:30:23.521Z,4.51
2023-03-04T13:31:57.446Z,4.52
2023-03-04T13:33:37.380Z,4.51
2023-03-04T13:35:24.023Z,4.59
2023-03-04T13:37:09.262Z,4.60
2023-03-04T13:38:48.286Z,4.59
2023-03-04T13:40:21.369Z,4.67
2023-03-04T13:41:56.554Z,4.63
2023-03-04T13:43:29.818Z,4.59
2023-03-04T13:45:14.719Z,4.62
2023-03-04T13:47:12.389Z,4.59
2023-03-04T13:48:53.346Z,4.57
2023-03-04T13:50:37.117Z,4.54
2023-03-04T13:52:13.343Z,4.49
2023-03-04T13:53:55.780Z,4.47
2023-03-04T13:55:28.825Z,4.47
2023-03-04T13:57:13.726Z,4.42
2023-03-04T13:59:04.905Z,4.44
2023-03-04T14:00:51.741Z,4.41
2023-03-04T14:02:25.134Z,4.44
2023-03-04T14:04:10.390Z,4.45
2023-03-04T14:05:55.811Z,4.35
2023-03-04T14:07:29.045Z,4.39
2023-03-04T14:09:02.359Z,4.46
2023-03-04T14:10:47.339Z,4.39
2023-03-04T14:12:09.127Z,4.33
2023-03-04T14:13:42.967Z,4.23
2023-03-04T14:15:12.252Z,4.07
2023-03-04T14:17:06.270Z,3.71
2023-03-04T14:18:38.506Z,3.49
2023-03-04T14:20:32.428Z,3.25
2023-03-04T14:21:54.517Z,3.03
2023-03-04T14:23:27.629Z,2.90
2023-03-04T14:25:12.576Z,2.73
2023-03-04T14:27:07.411Z,2.66
2023-03-04T14:28:43.283Z,2.68
2023-03-04T14:30:09.827Z,2.62
2023-03-04T14:31:43.629Z,2.56
2023-03-04T14:33:37.422Z,2.49
2023-03-04T14:35:32.440Z,2.47
2023-03-04T14:37:17.229Z,2.36
2023-03-04T14:39:02.506Z,2.27
2023-03-04T14:40:47.901Z,2.22
2023-03-04T14:42:23.554Z,2.26
2023-03-04T14:43:53.490Z,2.23
2023-03-04T14:45:38.508Z,2.30
2023-03-04T14:47:24.368Z,2.25
2023-03-04T14:48:53.925Z,2.22
2023-03-04T14:50:27.396Z,2.22
2023-03-04T14:52:08.845Z,2.20
2023-03-04T14:53:53.776Z,2.25
2023-03-04T14:57:59.424Z,2.25
2023-03-04T14:59:32.914Z,2.34
2023-03-04T15:00:55.437Z,2.33
2023-03-04T15:02:35.907Z,2.33
2023-03-04T15:04:11.182Z,2.32
2023-03-04T15:05:46.924Z,2.27
2023-03-04T15:07:28.449Z,2.30
2023-03-04T15:09:02.065Z,2.31
2023-03-04T15:10:31.445Z,2.31
2023-03-04T15:12:13.326Z,2.36
2023-03-04T15:13:59.311Z,2.43
2023-03-04T15:15:28.045Z,2.46
2023-03-04T15:17:10.568Z,2.45
2023-03-04T15:18:44.259Z,2.44
2023-03-04T15:20:08.584Z,2.46
2023-03-04T15:21:44.789Z,2.45
2023-03-04T15:23:17.559Z,2.34
2023-03-04T15:24:42.329Z,2.44
2023-03-04T15:26:27.231Z,2.45
2023-03-04T15:28:02.867Z,2.43
2023-03-04T15:29:36.649Z,2.45
2023-03-04T15:31:05.642Z,2.42
2023-03-04T15:32:29.416Z,2.42
2023-03-04T15:34:05.022Z,2.41
2023-03-04T15:35:46.288Z,2.37
2023-03-04T15:37:40.425Z,2.38
2023-03-04T15:39:33.596Z,2.39
2023-03-04T15:41:07.274Z,2.40
2023-03-04T15:43:01.418Z,2.35
2023-03-04T15:44:46.005Z,2.33
2023-03-04T15:46:40.495Z,2.31
2023-03-04T15:48:09.587Z,2.25
2023-03-04T15:50:04.390Z,2.05
2023-03-04T15:51:40.366Z,2.14
2023-03-04T15:53:25.178Z,2.11
2023-03-04T15:55:10.162Z,2.10
2023-03-04T15:57:02.766Z,2.08
2023-03-04T15:58:27.046Z,2.08
2023-03-04T16:00:12.165Z,2.04
2023-03-04T16:01:53.102Z,2.03
2023-03-04T16:03:38.009Z,1.98
2023-03-04T16:05:22.993Z,1.92
2023-03-04T16:06:59.382Z,1.88
2023-03-04T16:08:43.962Z,1.86
2023-03-04T16:10:08.140Z,1.82
2023-03-04T16:12:01.349Z,1.78
2023-03-04T16:13:25.070Z,1.79
2023-03-04T16:15:06.752Z,1.78
2023-03-04T16:16:53.568Z,1.73
2023-03-04T16:18:38.403Z,1.70
2023-03-04T16:20:08.006Z,1.63
2023-03-04T16:21:53.351Z,1.62
2023-03-04T16:23:47.385Z,1.49
2023-03-04T16:25:28.390Z,1.54
2023-03-04T16:27:13.805Z,1.50
2023-03-04T16:28:40.125Z,1.46
2023-03-04T16:30:09.238Z,1.50
2023-03-04T16:31:40.478Z,1.49
2023-03-04T16:33:24.988Z,1.44
2023-03-04T16:35:10.455Z,1.36
2023-03-04T16:36:55.716Z,1.39
2023-03-04T16:38:49.432Z,1.33
2023-03-04T16:40:43.392Z,1.33
2023-03-04T16:42:28.473Z,1.33
2023-03-04T16:44:13.612Z,1.34
2023-03-04T16:45:58.891Z,1.35
2023-03-04T16:47:53.431Z,1.31
2023-03-04T16:49:34.144Z,1.29
2023-03-04T16:51:09.043Z,1.24
2023-03-04T16:52:42.736Z,1.29
2023-03-04T16:54:15.889Z,1.25
2023-03-04T16:56:01.053Z,1.22
2023-03-04T16:57:55.408Z,1.26
2023-03-04T16:59:35.817Z,1.23
2023-03-04T17:01:21.259Z,1.22
2023-03-04T17:03:07.024Z,1.20
2023-03-04T17:05:00.580Z,1.18
2023-03-04T17:06:54.054Z,1.19
2023-03-04T17:08:40.130Z,1.19
2023-03-04T17:10:25.096Z,1.19
2023-03-04T17:12:00.875Z,1.21
2023-03-04T17:13:41.934Z,1.23
2023-03-04T17:15:30.133Z,1.20
2023-03-04T17:17:17.488Z,1.20
2023-03-04T17:19:03.951Z,1.17
2023-03-04T17:20:39.896Z,1.17
2023-03-04T17:22:25.415Z,1.17
2023-03-04T17:24:11.361Z,1.15
2023-03-04T17:25:57.067Z,1.17
2023-03-04T17:27:32.393Z,1.22
2023-03-04T17:29:01.834Z,1.19
2023-03-04T17:30:53.138Z,1.24
2023-03-04T17:32:28.439Z,1.27
2023-03-04T17:34:13.360Z,1.33
2023-03-04T17:35:49.495Z,1.32
2023-03-04T17:37:13.359Z,1.34
2023-03-04T17:39:08.482Z,1.31
2023-03-04T17:40:55.837Z,1.41
2023-03-04T17:42:24.541Z,1.44
2023-03-04T17:43:58.042Z,1.47
2023-03-04T17:45:21.621Z,1.54
2023-03-04T17:47:07.065Z,1.54
2023-03-04T17:48:40.433Z,1.53
2023-03-04T17:50:25.401Z,1.52
2023-03-04T17:52:10.559Z,1.52
2023-03-04T17:56:10.432Z,1.54
2023-03-04T17:57:42.396Z,1.57
2023-03-04T17:59:15.595Z,1.61
2023-03-04T18:01:01.331Z,1.62
2023-03-04T18:02:48.408Z,1.63
2023-03-04T18:04:33.433Z,1.62
2023-03-04T18:06:18.269Z,1.62
2023-03-04T18:08:03.733Z,1.58
2023-03-04T18:09:37.166Z,1.62
2023-03-04T18:11:10.248Z,1.53
2023-03-04T18:13:04.005Z,1.67
2023-03-04T18:14:49.410Z,1.62
2023-03-04T18:16:26.549Z,1.65
2023-03-04T18:18:08.114Z,1.60
2023-03-04T18:19:37.431Z,1.66
2023-03-04T18:21:22.137Z,1.63
2023-03-04T18:23:08.320Z,1.57
2023-03-04T18:24:44.484Z,1.57
2023-03-04T18:26:29.273Z,1.50
2023-03-04T18:28:05.301Z,1.45
2023-03-04T18:29:29.536Z,1.40
2023-03-04T18:31:03.253Z,1.34
2023-03-04T18:32:57.438Z,1.32
2023-03-04T18:34:42.667Z,1.26
2023-03-04T18:36:16.112Z,1.22
2023-03-04T18:38:11.404Z,1.05
2023-03-04T18:39:44.586Z,1.13
2023-03-04T18:41:27.487Z,1.06
2023-03-04T18:43:04.848Z,0.98
2023-03-04T18:46:44.999Z,0.97
2023-03-04T18:48:31.798Z,0.97
2023-03-04T18:50:04.790Z,0.94
2023-03-04T18:51:40.261Z,0.93
2023-03-04T18:53:14.081Z,0.92
2023-03-04T18:54:43.539Z,0.92
2023-03-04T18:56:30.121Z,0.92
2023-03-04T18:58:16.075Z,0.90
2023-03-04T19:00:02.011Z,0.89
2023-03-04T19:01:31.132Z,0.89
2023-03-04T19:03:05.083Z,0.85
2023-03-04T19:04:41.142Z,0.87
2023-03-04T19:06:16.695Z,0.85
2023-03-04T19:07:52.866Z,0.82
2023-03-04T19:09:47.469Z,0.81
2023-03-04T19:11:40.224Z,0.83
2023-03-04T19:13:05.453Z,0.82
2023-03-04T19:14:38.566Z,0.80
2023-03-04T19:16:23.582Z,0.78
2023-03-04T19:18:09.289Z,0.75
2023-03-04T19:20:05.425Z,0.74
2023-03-04T19:21:49.427Z,0.68
2023-03-04T19:23:34.535Z,0.59
2023-03-04T19:25:15.277Z,0.51
2023-03-04T19:26:49.475Z,0.43
2023-03-04T19:28:33.947Z,0.38
2023-03-04T19:30:18.604Z,0.32
2023-03-04T19:31:41.466Z,0.25
2023-03-04T19:33:14.872Z,0.21
2023-03-04T19:35:06.107Z,0.11
2023-03-04T19:36:27.787Z,0.08
2023-03-04T19:38:13.081Z,0.05
2023-03-04T19:39:59.203Z,-0.06
2023-03-04T19:41:44.320Z,-0.08
2023-03-04T19:43:25.023Z,-0.13
2023-03-04T19:45:10.337Z,-0.18
2023-03-04T19:46:33.869Z,-0.22
2023-03-04T19:48:18.732Z,-0.25
2023-03-04T19:49:52.539Z,-0.30
2023-03-04T19:51:36.209Z,-0.33
2023-03-04T19:53:20.729Z,-0.35
2023-03-04T19:54:54.461Z,-0.40
2023-03-04T19:56:30.577Z,-0.40
2023-03-04T19:58:11.361Z,-0.43
2023-03-04T19:59:44.652Z,-0.46
2023-03-04T20:01:25.802Z,-0.50
2023-03-04T20:03:10.913Z,-0.54
2023-03-04T20:04:51.576Z,-0.58
2023-03-04T20:08:26.744Z,-0.66
2023-03-04T20:10:11.696Z,-0.69
2023-03-04T20:11:56.582Z,-0.76
2023-03-04T20:13:42.314Z,-0.71
2023-03-04T20:15:26.946Z,-0.72
2023-03-04T20:17:15.007Z,-0.74
2023-03-04T20:19:08.462Z,-0.79
2023-03-04T20:20:53.371Z,-0.77
2023-03-04T20:22:38.054Z,-0.77
2023-03-04T20:24:32.383Z,-0.79
2023-03-04T20:26:13.313Z,-0.79
2023-03-04T20:28:07.746Z,-0.84
2023-03-04T20:30:03.922Z,-0.82
2023-03-04T20:31:58.036Z,-0.83
2023-03-04T20:33:21.559Z,-0.86
2023-03-04T20:35:08.883Z,-0.84
2023-03-04T20:36:30.594Z,-0.86
2023-03-04T20:37:59.834Z,-0.87
2023-03-04T20:39:29.569Z,-0.90
2023-03-04T20:41:14.901Z,-0.93
2023-03-04T20:42:44.230Z,-0.96
2023-03-04T20:44:08.611Z,-1.01
2023-03-04T20:45:34.487Z,-1.02
2023-03-04T20:46:59.500Z,-1.02
2023-03-04T20:48:25.568Z,-1.05
2023-03-04T20:49:49.880Z,-1.10
2023-03-04T20:51:18.403Z,-1.09
2023-03-04T20:52:40.137Z,-1.12
2023-03-04T20:54:13.274Z,-1.14
2023-03-04T20:55:50.275Z,-1.16
2023-03-04T20:57:14.058Z,-1.15
2023-03-04T20:58:56.430Z,-1.14
2023-03-04T21:00:50.400Z,-1.15
2023-03-04T21:02:43.417Z,-1.22
2023-03-04T21:04:33.604Z,-1.19
2023-03-04T21:06:14.051Z,-1.20
2023-03-04T21:08:09.422Z,-1.19
2023-03-04T21:10:03.691Z,-1.19
2023-03-04T21:11:58.614Z,-1.20
2023-03-04T21:13:54.407Z,-1.23
2023-03-04T21:15:39.259Z,-1.26
2023-03-04T21:17:24.461Z,-1.27
2023-03-04T21:18:46.592Z,-1.28
2023-03-04T21:20:10.394Z,-1.30
2023-03-04T21:21:58.051Z,-1.33
2023-03-04T21:23:49.874Z,-1.36
2023-03-04T21:25:23.144Z,-1.40
2023-03-04T21:27:08.604Z,-1.43
2023-03-04T21:28:45.816Z,-1.46
2023-03-04T21:30:30.900Z,-1.48
2023-03-04T21:32:17.211Z,-1.58
2023-03-04T21:34:04.917Z,-1.51
2023-03-04T21:38:00.411Z,-1.55
2023-03-04T21:39:29.185Z,-1.57
2023-03-04T21:41:03.133Z,-1.62
2023-03-04T21:42:42.989Z,-1.62
2023-03-04T21:44:38.524Z,-1.61
2023-03-04T21:46:33.358Z,-1.63
2023-03-04T21:48:09.163Z,-1.60
2023-03-04T21:50:03.527Z,-1.62
2023-03-04T21:51:52.202Z,-1.64
2023-03-04T21:53:31.059Z,-1.66
2023-03-04T21:55:16.353Z,-1.68
2023-03-04T21:57:02.589Z,-1.69
2023-03-04T21:58:56.431Z,-1.72
2023-03-04T22:00:50.568Z,-1.77
2023-03-04T22:02:23.913Z,-1.86
2023-03-04T22:04:09.677Z,-1.95
2023-03-04T22:05:44.954Z,-1.87
2023-03-04T22:07:14.235Z,-1.89
2023-03-04T22:09:09.647Z,-1.92
2023-03-04T22:10:50.161Z,-1.89
2023-03-04T22:12:25.912Z,-1.92
2023-03-04T22:13:51.241Z,-1.94
2023-03-04T22:15:24.067Z,-1.91